This is the latest recevied weather packets stored in our database for station/object KC0RPY. If no packets are shown the sender has not sent any weather packets the latest 10 day(s).
| Time | Temp. | Humidity | Pressure | Rain* | Wind** | Luminosity | Snow |
|---|---|---|---|---|---|---|---|
| 1777839948 | 27.22° C | 35% | 1010.4 hPa | 0 mm | - | 686 W/m² | - |
| 1777839645 | 27.78° C | 33% | 1010.7 hPa | 0 mm | - | 691 W/m² | - |
| 1777839344 | 26.67° C | 36% | 1010.7 hPa | 0 mm | - | 690 W/m² | - |
| 1777839041 | 27.22° C | 34% | 1011.5 hPa | 0 mm | - | 693 W/m² | - |
| 1777838736 | 27.22° C | 34% | 1011.1 hPa | 0 mm | - | 730 W/m² | - |
| 1777838433 | 27.22° C | 35% | 1011.5 hPa | 0 mm | - | 733 W/m² | - |
| 1777838131 | 27.22° C | 38% | 1011.1 hPa | 0 mm | - | 723 W/m² | - |
| 1777837827 | 26.67° C | 42% | 1011.5 hPa | 0 mm | - | 731 W/m² | - |
| 1777837525 | 26.67° C | 40% | 1011.5 hPa | 0 mm | - | 718 W/m² | - |
| 1777837224 | 26.67° C | 41% | 1011.5 hPa | 0 mm | - | 723 W/m² | - |
| 1777836921 | 26.11° C | 41% | 1011.5 hPa | 0 mm | - | 741 W/m² | - |
| 1777836616 | 26.67° C | 41% | 1011.5 hPa | 0 mm | - | 721 W/m² | - |
| 1777836313 | 26.11° C | 42% | 1011.8 hPa | 0 mm | - | 728 W/m² | - |
| 1777836009 | 25.56° C | 42% | 1011.8 hPa | 0 mm | - | 755 W/m² | - |
| 1777835706 | 25.56° C | 42% | 1011.8 hPa | 0 mm | - | 763 W/m² | - |
| 1777835403 | 25.56° C | 42% | 1011.8 hPa | 0 mm | - | 771 W/m² | - |
| 1777835099 | 26.11° C | 42% | 1012.2 hPa | 0 mm | - | 770 W/m² | - |
| 1777834796 | 25.56° C | 42% | 1012.2 hPa | 0 mm | - | 789 W/m² | - |
| 1777834493 | 25° C | 41% | 1012.2 hPa | 0 mm | - | 809 W/m² | - |
| 1777834192 | 25° C | 43% | 1012.2 hPa | 0 mm | - | 787 W/m² | - |
| 1777833889 | 25° C | 43% | 1012.2 hPa | 0 mm | - | 775 W/m² | - |
| 1777833585 | 25° C | 43% | 1012.5 hPa | 0 mm | - | 758 W/m² | - |
| 1777833282 | 25° C | 42% | 1012.2 hPa | 0 mm | - | 732 W/m² | - |
| 1777832979 | 24.44° C | 44% | 1012.2 hPa | 0 mm | - | 726 W/m² | - |
| 1777832678 | 24.44° C | 43% | 1012.5 hPa | 0 mm | - | 730 W/m² | - |
* Rain latest hour (hover to see other rain measurements)
** Current wind speed in m/s (hover to see current wind gust speed)